Almeria, Nebraska
Current Conditions -  °F | °C
As of 7:53 AM on Friday 24 Oct 2014 (Local Time) from KODX Reporting Station
Haze Haze  
Wind Chill:   Ceiling: Unl
Heat Index:   Visibility: 6mi
Dew Point:   Wind: 3mph
Humidity: 93%   Direction: 230°SW
Pressure: 29.91"   Gusts: NA
Location:  41.914°N, 99.4547°W
Report Text: KODX 241253Z AUTO 23003KT 6SM BR CLR 09/08 A2991 RMK AO2 SLP131 T00890078
Loading
Personal Weather Stations






























Interactive Weather Map
Tropical Storm Tracking
New forecast layout! Learn more

10-Day Weather Forecast

Advertisements
Track Severe Weather on mobile